MSC Sinfonia — H8XH — position and weather

sailwx.info

Track history (hours):
 
Tides and Currents Weather Stations Pressure Air Temp Water Temp Dewpoint Dewpoint Depression Visibility Wind Speed Wind Dir Waves Ship Positions

MSC Sinfonia

Last reported at 2016-Dec-05 14:34 UTC. Time now 2016-Dec-08 05:59 UTC.
Position S 29°35' E 031°34'.

Length 251 m; draft 6.8 m.

Type: Passenger vessel. MMSI: 356715971.

Date/timePositionNaut miles runAvg speedWind from/ knotsBaromVisibWave heightAir tempDewpointWater temp
2016-Dec-05 14:34S 29°35' E 031°34'1818.1
2016-Dec-05 13:33S 29°46' E 031°18'1515.3
2016-Dec-05 12:34S 29°53' E 031°02'0 0.2
2016-Dec-05 11:33S 29°52' E 031°02'0 0.0
2016-Dec-05 10:33S 29°52' E 031°02'0 0.0
2016-Dec-05 09:33S 29°52' E 031°02'0 0.0
2016-Dec-05 08:33S 29°52' E 031°02'0 0.0
2016-Dec-05 07:33S 29°52' E 031°02'0 0.0
2016-Dec-05 06:33S 29°52' E 031°02'0 0.0
2016-Dec-05 05:33S 29°52' E 031°02'0 0.0
2016-Dec-05 04:33S 29°52' E 031°02'0 0.0
2016-Dec-05 03:33S 29°52' E 031°02'3 3.5
2016-Dec-05 02:33S 29°50' E 031°05'9 9.0
2016-Dec-05 01:33S 29°48' E 031°15'9 8.9
2016-Dec-05 00:33S 29°44' E 031°24'10 9.6
2016-Dec-04 23:33S 29°37' E 031°32'9 9.3
2016-Dec-04 22:33S 29°30' E 031°39'9 9.3
2016-Dec-04 21:33S 29°24' E 031°47'  
2016-Dec-02 14:33S 29°38' E 031°31'1817.6
2016-Dec-02 13:33S 29°49' E 031°15'1211.1
2016-Dec-02 12:29S 29°52' E 031°02'0 0.0
2016-Dec-02 11:32S 29°52' E 031°02'0 0.0
2016-Dec-02 10:32S 29°52' E 031°02'0 0.0
2016-Dec-02 09:32S 29°52' E 031°02'0 0.0
2016-Dec-02 08:32S 29°52' E 031°02'0 0.0
2016-Dec-02 07:32S 29°52' E 031°02'0 0.0
2016-Dec-02 06:32S 29°52' E 031°02'0 0.0
2016-Dec-02 05:32S 29°52' E 031°02'0 0.0
2016-Dec-02 04:32S 29°52' E 031°02'0 0.0
2016-Dec-02 03:29S 29°52' E 031°02'4 3.8
2016-Dec-02 02:34S 29°50' E 031°05'1010.4
2016-Dec-02 01:34S 29°48' E 031°17'1111.0
2016-Dec-02 00:33S 29°41' E 031°27'1111.1
2016-Dec-01 23:34S 29°33' E 031°36'1111.3
2016-Dec-01 22:34S 29°25' E 031°45'  
2016-Nov-28 14:33S 29°34' E 031°35'1918.9
2016-Nov-28 13:33S 29°47' E 031°19'1615.8
2016-Nov-28 12:34S 29°53' E 031°02'0 0.2
2016-Nov-28 11:30S 29°52' E 031°02'0 0.0
2016-Nov-28 10:33S 29°52' E 031°02'0 0.0
2016-Nov-28 09:33S 29°52' E 031°02'0 0.0
2016-Nov-28 08:33S 29°52' E 031°02'0 0.0
2016-Nov-28 07:33S 29°52' E 031°02'0 0.0
2016-Nov-28 06:24S 29°52' E 031°02'0 0.0
2016-Nov-28 05:33S 29°52' E 031°02'0 0.0
2016-Nov-28 04:33S 29°52' E 031°02'0 0.0
2016-Nov-28 03:33S 29°52' E 031°02'2 2.2
2016-Nov-28 02:33S 29°51' E 031°04'8 7.7
2016-Nov-28 01:33S 29°49' E 031°13'7 6.7
2016-Nov-28 00:33S 29°47' E 031°20'7 7.5
2016-Nov-27 23:33S 29°42' E 031°26'7 7.3
2016-Nov-27 22:34S 29°37' E 031°32'8 7.6
2016-Nov-27 21:33S 29°31' E 031°38'3 2.6
2016-Nov-27 20:33S 29°29' E 031°40'  
Track history (hours):
 
Tides and Currents Weather Stations Pressure Air Temp Water Temp Dewpoint Dewpoint Depression Visibility Wind Speed Wind Dir Waves Ship Positions

MSC Sinfonia

Last reported at 2016-Dec-05 14:34 UTC. Time now 2016-Dec-08 05:59 UTC.
Position S 29°35' E 031°34'.

Length 251 m; draft 6.8 m.

Type: Passenger vessel. MMSI: 356715971.

Date/timePositionNaut miles runAvg speedWind from/ knotsBaromVisibWave heightAir tempDewpointWater temp
2016-Dec-05 14:34S 29°35' E 031°34'1818.1
2016-Dec-05 13:33S 29°46' E 031°18'1515.3
2016-Dec-05 12:34S 29°53' E 031°02'0 0.2
2016-Dec-05 11:33S 29°52' E 031°02'0 0.0
2016-Dec-05 10:33S 29°52' E 031°02'0 0.0
2016-Dec-05 09:33S 29°52' E 031°02'0 0.0
2016-Dec-05 08:33S 29°52' E 031°02'0 0.0
2016-Dec-05 07:33S 29°52' E 031°02'0 0.0
2016-Dec-05 06:33S 29°52' E 031°02'0 0.0
2016-Dec-05 05:33S 29°52' E 031°02'0 0.0
2016-Dec-05 04:33S 29°52' E 031°02'0 0.0
2016-Dec-05 03:33S 29°52' E 031°02'3 3.5
2016-Dec-05 02:33S 29°50' E 031°05'9 9.0
2016-Dec-05 01:33S 29°48' E 031°15'9 8.9
2016-Dec-05 00:33S 29°44' E 031°24'10 9.6
2016-Dec-04 23:33S 29°37' E 031°32'9 9.3
2016-Dec-04 22:33S 29°30' E 031°39'9 9.3
2016-Dec-04 21:33S 29°24' E 031°47'  
2016-Dec-02 14:33S 29°38' E 031°31'1817.6
2016-Dec-02 13:33S 29°49' E 031°15'1211.1
2016-Dec-02 12:29S 29°52' E 031°02'0 0.0
2016-Dec-02 11:32S 29°52' E 031°02'0 0.0
2016-Dec-02 10:32S 29°52' E 031°02'0 0.0
2016-Dec-02 09:32S 29°52' E 031°02'0 0.0
2016-Dec-02 08:32S 29°52' E 031°02'0 0.0
2016-Dec-02 07:32S 29°52' E 031°02'0 0.0
2016-Dec-02 06:32S 29°52' E 031°02'0 0.0
2016-Dec-02 05:32S 29°52' E 031°02'0 0.0
2016-Dec-02 04:32S 29°52' E 031°02'0 0.0
2016-Dec-02 03:29S 29°52' E 031°02'4 3.8
2016-Dec-02 02:34S 29°50' E 031°05'1010.4
2016-Dec-02 01:34S 29°48' E 031°17'1111.0
2016-Dec-02 00:33S 29°41' E 031°27'1111.1
2016-Dec-01 23:34S 29°33' E 031°36'1111.3
2016-Dec-01 22:34S 29°25' E 031°45'  
2016-Nov-28 14:33S 29°34' E 031°35'1918.9
2016-Nov-28 13:33S 29°47' E 031°19'1615.8
2016-Nov-28 12:34S 29°53' E 031°02'0 0.2
2016-Nov-28 11:30S 29°52' E 031°02'0 0.0
2016-Nov-28 10:33S 29°52' E 031°02'0 0.0
2016-Nov-28 09:33S 29°52' E 031°02'0 0.0
2016-Nov-28 08:33S 29°52' E 031°02'0 0.0
2016-Nov-28 07:33S 29°52' E 031°02'0 0.0
2016-Nov-28 06:24S 29°52' E 031°02'0 0.0
2016-Nov-28 05:33S 29°52' E 031°02'0 0.0
2016-Nov-28 04:33S 29°52' E 031°02'0 0.0
2016-Nov-28 03:33S 29°52' E 031°02'2 2.2
2016-Nov-28 02:33S 29°51' E 031°04'8 7.7
2016-Nov-28 01:33S 29°49' E 031°13'7 6.7
2016-Nov-28 00:33S 29°47' E 031°20'7 7.5
2016-Nov-27 23:33S 29°42' E 031°26'7 7.3
2016-Nov-27 22:34S 29°37' E 031°32'8 7.6
2016-Nov-27 21:33S 29°31' E 031°38'3 2.6
2016-Nov-27 20:33S 29°29' E 031°40'  

Dump ship's entire track history